sensor_id;sensor_type;location;lat;lon;timestamp;P1;durP1;ratioP1;P2;durP2;ratioP2
15230;SDS011;32569;51.762;8.564;2023-05-10T00:01:20;15.70;;;14.10;;
15230;SDS011;32569;51.762;8.564;2023-05-10T00:03:46;16.23;;;14.53;;
15230;SDS011;32569;51.762;8.564;2023-05-10T00:06:13;18.23;;;15.87;;
15230;SDS011;32569;51.762;8.564;2023-05-10T00:08:40;17.33;;;15.47;;
15230;SDS011;32569;51.762;8.564;2023-05-10T00:11:07;16.27;;;14.57;;
15230;SDS011;32569;51.762;8.564;2023-05-10T00:13:37;16.80;;;15.20;;
15230;SDS011;32569;51.762;8.564;2023-05-10T00:16:04;18.40;;;16.60;;
15230;SDS011;32569;51.762;8.564;2023-05-10T00:18:34;19.53;;;17.03;;
15230;SDS011;32569;51.762;8.564;2023-05-10T00:21:01;19.50;;;17.40;;
15230;SDS011;32569;51.762;8.564;2023-05-10T00:23:27;18.33;;;16.43;;
15230;SDS011;32569;51.762;8.564;2023-05-10T00:25:54;19.27;;;16.70;;
15230;SDS011;32569;51.762;8.564;2023-05-10T00:28:20;19.47;;;17.37;;
15230;SDS011;32569;51.762;8.564;2023-05-10T00:30:48;21.33;;;17.67;;
15230;SDS011;32569;51.762;8.564;2023-05-10T00:33:15;20.13;;;17.40;;
15230;SDS011;32569;51.762;8.564;2023-05-10T00:35:45;19.40;;;17.40;;
15230;SDS011;32569;51.762;8.564;2023-05-10T00:38:11;20.30;;;18.07;;
15230;SDS011;32569;51.762;8.564;2023-05-10T00:40:38;21.93;;;18.57;;
15230;SDS011;32569;51.762;8.564;2023-05-10T00:43:05;22.43;;;18.67;;
15230;SDS011;32569;51.762;8.564;2023-05-10T00:45:34;22.80;;;19.13;;
15230;SDS011;32569;51.762;8.564;2023-05-10T00:48:04;23.57;;;21.07;;
15230;SDS011;32569;51.762;8.564;2023-05-10T00:50:31;22.00;;;18.83;;
15230;SDS011;32569;51.762;8.564;2023-05-10T00:52:59;22.10;;;19.07;;
15230;SDS011;32569;51.762;8.564;2023-05-10T00:55:28;23.20;;;19.27;;
15230;SDS011;32569;51.762;8.564;2023-05-10T00:57:55;22.03;;;19.63;;
15230;SDS011;32569;51.762;8.564;2023-05-10T01:00:22;22.03;;;19.17;;
15230;SDS011;32569;51.762;8.564;2023-05-10T01:02:48;23.13;;;20.53;;
15230;SDS011;32569;51.762;8.564;2023-05-10T01:05:16;24.03;;;20.20;;
15230;SDS011;32569;51.762;8.564;2023-05-10T01:07:43;22.50;;;19.97;;
15230;SDS011;32569;51.762;8.564;2023-05-10T01:10:10;23.03;;;20.50;;
15230;SDS011;32569;51.762;8.564;2023-05-10T01:12:37;24.30;;;20.67;;
15230;SDS011;32569;51.762;8.564;2023-05-10T01:15:06;22.67;;;19.93;;
15230;SDS011;32569;51.762;8.564;2023-05-10T01:17:36;23.73;;;20.27;;
15230;SDS011;32569;51.762;8.564;2023-05-10T01:20:05;25.23;;;20.73;;
15230;SDS011;32569;51.762;8.564;2023-05-10T01:22:42;28.27;;;21.73;;
15230;SDS011;32569;51.762;8.564;2023-05-10T01:25:43;25.20;;;19.90;;
15230;SDS011;32569;51.762;8.564;2023-05-10T01:31:39;26.33;;;20.77;;
15230;SDS011;32569;51.762;8.564;2023-05-10T01:34:30;25.93;;;21.27;;
15230;SDS011;32569;51.762;8.564;2023-05-10T01:37:02;26.63;;;20.73;;
15230;SDS011;32569;51.762;8.564;2023-05-10T01:39:36;25.77;;;20.20;;
15230;SDS011;32569;51.762;8.564;2023-05-10T01:42:14;25.90;;;20.93;;
15230;SDS011;32569;51.762;8.564;2023-05-10T01:44:46;24.43;;;19.87;;
15230;SDS011;32569;51.762;8.564;2023-05-10T01:47:21;25.83;;;20.63;;
15230;SDS011;32569;51.762;8.564;2023-05-10T01:49:54;20.63;;;16.40;;
15230;SDS011;32569;51.762;8.564;2023-05-10T01:52:22;19.30;;;14.00;;
15230;SDS011;32569;51.762;8.564;2023-05-10T01:54:55;12.50;;;10.60;;
15230;SDS011;32569;51.762;8.564;2023-05-10T01:57:31;13.90;;;10.60;;
15230;SDS011;32569;51.762;8.564;2023-05-10T01:59:59;11.20;;;9.50;;
15230;SDS011;32569;51.762;8.564;2023-05-10T02:02:28;10.33;;;9.23;;
15230;SDS011;32569;51.762;8.564;2023-05-10T02:04:59;9.87;;;8.50;;
15230;SDS011;32569;51.762;8.564;2023-05-10T02:07:26;11.77;;;9.23;;
15230;SDS011;32569;51.762;8.564;2023-05-10T02:09:57;12.67;;;9.80;;
15230;SDS011;32569;51.762;8.564;2023-05-10T02:12:25;13.40;;;9.93;;
15230;SDS011;32569;51.762;8.564;2023-05-10T02:14:52;12.50;;;10.10;;
15230;SDS011;32569;51.762;8.564;2023-05-10T02:17:20;12.83;;;11.37;;
15230;SDS011;32569;51.762;8.564;2023-05-10T02:19:49;14.13;;;12.33;;
15230;SDS011;32569;51.762;8.564;2023-05-10T02:22:18;15.30;;;13.70;;
15230;SDS011;32569;51.762;8.564;2023-05-10T02:24:46;16.77;;;14.97;;
15230;SDS011;32569;51.762;8.564;2023-05-10T02:27:13;15.00;;;13.40;;
15230;SDS011;32569;51.762;8.564;2023-05-10T02:29:41;14.10;;;12.53;;
15230;SDS011;32569;51.762;8.564;2023-05-10T02:32:08;16.03;;;14.03;;
15230;SDS011;32569;51.762;8.564;2023-05-10T02:34:37;18.00;;;14.43;;
15230;SDS011;32569;51.762;8.564;2023-05-10T02:37:04;15.30;;;12.23;;
15230;SDS011;32569;51.762;8.564;2023-05-10T02:39:33;14.60;;;12.10;;
15230;SDS011;32569;51.762;8.564;2023-05-10T02:42:00;16.10;;;13.23;;
15230;SDS011;32569;51.762;8.564;2023-05-10T02:44:27;13.17;;;11.77;;
15230;SDS011;32569;51.762;8.564;2023-05-10T02:46:56;13.67;;;11.63;;
15230;SDS011;32569;51.762;8.564;2023-05-10T02:49:23;13.23;;;11.87;;
15230;SDS011;32569;51.762;8.564;2023-05-10T02:51:50;12.77;;;11.47;;
15230;SDS011;32569;51.762;8.564;2023-05-10T02:54:24;12.00;;;10.77;;
15230;SDS011;32569;51.762;8.564;2023-05-10T02:56:57;10.63;;;9.47;;
15230;SDS011;32569;51.762;8.564;2023-05-10T02:59:25;10.70;;;9.67;;
15230;SDS011;32569;51.762;8.564;2023-05-10T03:01:52;9.80;;;8.90;;
15230;SDS011;32569;51.762;8.564;2023-05-10T03:04:18;10.27;;;9.13;;
15230;SDS011;32569;51.762;8.564;2023-05-10T03:06:45;9.33;;;8.43;;
15230;SDS011;32569;51.762;8.564;2023-05-10T03:09:12;9.40;;;8.50;;
15230;SDS011;32569;51.762;8.564;2023-05-10T03:11:43;8.87;;;7.97;;
15230;SDS011;32569;51.762;8.564;2023-05-10T03:14:24;8.67;;;7.87;;
15230;SDS011;32569;51.762;8.564;2023-05-10T03:17:02;9.07;;;8.17;;
15230;SDS011;32569;51.762;8.564;2023-05-10T03:19:37;9.03;;;8.13;;
15230;SDS011;32569;51.762;8.564;2023-05-10T03:22:10;8.63;;;7.73;;
15230;SDS011;32569;51.762;8.564;2023-05-10T03:24:39;8.13;;;7.33;;
15230;SDS011;32569;51.762;8.564;2023-05-10T03:27:08;8.93;;;7.57;;
15230;SDS011;32569;51.762;8.564;2023-05-10T03:29:40;8.50;;;7.70;;
15230;SDS011;32569;51.762;8.564;2023-05-10T03:32:08;7.27;;;6.63;;
15230;SDS011;32569;51.762;8.564;2023-05-10T03:34:35;6.90;;;6.30;;
15230;SDS011;32569;51.762;8.564;2023-05-10T03:37:08;6.17;;;5.67;;
15230;SDS011;32569;51.762;8.564;2023-05-10T03:39:34;6.63;;;5.60;;
15230;SDS011;32569;51.762;8.564;2023-05-10T03:42:01;5.97;;;5.33;;
15230;SDS011;32569;51.762;8.564;2023-05-10T03:44:28;5.20;;;4.73;;
15230;SDS011;32569;51.762;8.564;2023-05-10T03:46:56;5.30;;;4.90;;
15230;SDS011;32569;51.762;8.564;2023-05-10T03:49:22;4.90;;;4.50;;
15230;SDS011;32569;51.762;8.564;2023-05-10T03:51:49;5.10;;;4.70;;
15230;SDS011;32569;51.762;8.564;2023-05-10T03:54:16;4.87;;;4.37;;
15230;SDS011;32569;51.762;8.564;2023-05-10T03:56:42;5.53;;;5.03;;
15230;SDS011;32569;51.762;8.564;2023-05-10T03:59:09;7.97;;;5.43;;
15230;SDS011;32569;51.762;8.564;2023-05-10T04:01:35;6.03;;;5.43;;
15230;SDS011;32569;51.762;8.564;2023-05-10T04:04:07;6.47;;;5.87;;
15230;SDS011;32569;51.762;8.564;2023-05-10T04:06:33;6.60;;;5.90;;
15230;SDS011;32569;51.762;8.564;2023-05-10T04:09:00;6.90;;;6.03;;
15230;SDS011;32569;51.762;8.564;2023-05-10T04:11:29;7.40;;;6.60;;
15230;SDS011;32569;51.762;8.564;2023-05-10T04:13:56;6.63;;;6.03;;
15230;SDS011;32569;51.762;8.564;2023-05-10T04:16:22;6.67;;;6.07;;
15230;SDS011;32569;51.762;8.564;2023-05-10T04:18:49;7.30;;;6.60;;
15230;SDS011;32569;51.762;8.564;2023-05-10T04:21:17;6.53;;;5.93;;
15230;SDS011;32569;51.762;8.564;2023-05-10T04:23:44;6.10;;;5.50;;
15230;SDS011;32569;51.762;8.564;2023-05-10T04:26:10;5.20;;;4.70;;
15230;SDS011;32569;51.762;8.564;2023-05-10T04:28:37;5.47;;;4.97;;
15230;SDS011;32569;51.762;8.564;2023-05-10T04:31:04;4.27;;;3.87;;
15230;SDS011;32569;51.762;8.564;2023-05-10T04:33:31;3.57;;;3.27;;
15230;SDS011;32569;51.762;8.564;2023-05-10T04:35:59;3.50;;;3.20;;
15230;SDS011;32569;51.762;8.564;2023-05-10T04:38:27;3.57;;;3.27;;
15230;SDS011;32569;51.762;8.564;2023-05-10T04:40:54;3.63;;;3.33;;
15230;SDS011;32569;51.762;8.564;2023-05-10T04:43:20;3.83;;;3.43;;
15230;SDS011;32569;51.762;8.564;2023-05-10T04:45:47;3.60;;;3.30;;
15230;SDS011;32569;51.762;8.564;2023-05-10T04:48:15;3.60;;;3.30;;
15230;SDS011;32569;51.762;8.564;2023-05-10T04:50:41;4.37;;;3.63;;
15230;SDS011;32569;51.762;8.564;2023-05-10T04:53:08;4.00;;;3.67;;
15230;SDS011;32569;51.762;8.564;2023-05-10T04:55:36;4.30;;;3.90;;
15230;SDS011;32569;51.762;8.564;2023-05-10T04:58:03;4.90;;;4.30;;
15230;SDS011;32569;51.762;8.564;2023-05-10T05:00:29;4.43;;;4.03;;
15230;SDS011;32569;51.762;8.564;2023-05-10T05:02:56;5.00;;;4.60;;
15230;SDS011;32569;51.762;8.564;2023-05-10T05:05:23;6.10;;;4.87;;
15230;SDS011;32569;51.762;8.564;2023-05-10T05:07:50;6.20;;;5.63;;
15230;SDS011;32569;51.762;8.564;2023-05-10T05:10:17;6.40;;;5.80;;
15230;SDS011;32569;51.762;8.564;2023-05-10T05:12:45;8.03;;;6.30;;
15230;SDS011;32569;51.762;8.564;2023-05-10T05:15:11;6.13;;;5.53;;
15230;SDS011;32569;51.762;8.564;2023-05-10T05:17:40;5.90;;;5.30;;
15230;SDS011;32569;51.762;8.564;2023-05-10T05:20:07;6.00;;;5.40;;
15230;SDS011;32569;51.762;8.564;2023-05-10T05:22:35;5.70;;;5.17;;
15230;SDS011;32569;51.762;8.564;2023-05-10T05:25:02;5.20;;;4.80;;
15230;SDS011;32569;51.762;8.564;2023-05-10T05:27:29;5.30;;;4.90;;
15230;SDS011;32569;51.762;8.564;2023-05-10T05:29:57;5.23;;;4.73;;
15230;SDS011;32569;51.762;8.564;2023-05-10T05:32:24;6.47;;;3.83;;
15230;SDS011;32569;51.762;8.564;2023-05-10T05:34:51;4.53;;;4.13;;
15230;SDS011;32569;51.762;8.564;2023-05-10T05:37:18;4.80;;;4.17;;
15230;SDS011;32569;51.762;8.564;2023-05-10T05:39:46;5.50;;;5.00;;
15230;SDS011;32569;51.762;8.564;2023-05-10T05:42:13;4.87;;;4.50;;
15230;SDS011;32569;51.762;8.564;2023-05-10T05:44:41;4.53;;;4.20;;
15230;SDS011;32569;51.762;8.564;2023-05-10T05:47:10;5.30;;;4.80;;
15230;SDS011;32569;51.762;8.564;2023-05-10T05:49:36;4.00;;;3.60;;
15230;SDS011;32569;51.762;8.564;2023-05-10T05:52:03;4.40;;;4.00;;
15230;SDS011;32569;51.762;8.564;2023-05-10T05:54:30;3.67;;;3.20;;
15230;SDS011;32569;51.762;8.564;2023-05-10T05:56:57;5.33;;;3.40;;
15230;SDS011;32569;51.762;8.564;2023-05-10T05:59:24;3.67;;;3.33;;
15230;SDS011;32569;51.762;8.564;2023-05-10T06:01:51;3.30;;;3.00;;
15230;SDS011;32569;51.762;8.564;2023-05-10T06:04:19;2.80;;;2.53;;
15230;SDS011;32569;51.762;8.564;2023-05-10T06:06:46;2.80;;;2.60;;
15230;SDS011;32569;51.762;8.564;2023-05-10T06:09:13;3.87;;;2.70;;
15230;SDS011;32569;51.762;8.564;2023-05-10T06:11:39;2.40;;;2.20;;
15230;SDS011;32569;51.762;8.564;2023-05-10T06:14:06;2.60;;;2.40;;
15230;SDS011;32569;51.762;8.564;2023-05-10T06:16:39;2.80;;;2.60;;
15230;SDS011;32569;51.762;8.564;2023-05-10T06:19:05;3.80;;;2.30;;
15230;SDS011;32569;51.762;8.564;2023-05-10T06:21:33;3.23;;;3.00;;
15230;SDS011;32569;51.762;8.564;2023-05-10T06:24:00;2.73;;;2.53;;
15230;SDS011;32569;51.762;8.564;2023-05-10T06:26:27;3.53;;;2.93;;
15230;SDS011;32569;51.762;8.564;2023-05-10T06:28:54;3.37;;;3.03;;
15230;SDS011;32569;51.762;8.564;2023-05-10T06:31:21;4.27;;;3.87;;
15230;SDS011;32569;51.762;8.564;2023-05-10T06:33:47;4.20;;;3.90;;
15230;SDS011;32569;51.762;8.564;2023-05-10T06:36:14;4.73;;;4.33;;
15230;SDS011;32569;51.762;8.564;2023-05-10T06:38:42;5.20;;;4.70;;
15230;SDS011;32569;51.762;8.564;2023-05-10T06:41:08;4.97;;;4.57;;
15230;SDS011;32569;51.762;8.564;2023-05-10T06:43:35;4.60;;;4.20;;
15230;SDS011;32569;51.762;8.564;2023-05-10T06:46:05;5.17;;;4.77;;
15230;SDS011;32569;51.762;8.564;2023-05-10T06:48:32;5.70;;;4.60;;
15230;SDS011;32569;51.762;8.564;2023-05-10T06:50:59;5.37;;;4.40;;
15230;SDS011;32569;51.762;8.564;2023-05-10T06:53:25;5.23;;;4.80;;
15230;SDS011;32569;51.762;8.564;2023-05-10T06:55:53;5.87;;;5.27;;
15230;SDS011;32569;51.762;8.564;2023-05-10T06:58:20;6.90;;;6.20;;
15230;SDS011;32569;51.762;8.564;2023-05-10T07:00:47;6.47;;;5.87;;
15230;SDS011;32569;51.762;8.564;2023-05-10T07:03:13;6.87;;;6.23;;
15230;SDS011;32569;51.762;8.564;2023-05-10T07:05:40;6.20;;;5.60;;
15230;SDS011;32569;51.762;8.564;2023-05-10T07:08:07;6.33;;;5.33;;
15230;SDS011;32569;51.762;8.564;2023-05-10T07:10:34;6.40;;;5.63;;
15230;SDS011;32569;51.762;8.564;2023-05-10T07:13:02;6.70;;;6.10;;
15230;SDS011;32569;51.762;8.564;2023-05-10T07:15:28;6.97;;;6.27;;
15230;SDS011;32569;51.762;8.564;2023-05-10T07:17:55;6.67;;;5.13;;
15230;SDS011;32569;51.762;8.564;2023-05-10T07:20:22;5.87;;;5.30;;
15230;SDS011;32569;51.762;8.564;2023-05-10T07:22:48;5.93;;;5.40;;
15230;SDS011;32569;51.762;8.564;2023-05-10T07:25:15;5.87;;;5.00;;
15230;SDS011;32569;51.762;8.564;2023-05-10T07:27:42;5.97;;;5.37;;
15230;SDS011;32569;51.762;8.564;2023-05-10T07:30:10;7.83;;;6.17;;
15230;SDS011;32569;51.762;8.564;2023-05-10T07:32:38;5.93;;;5.33;;
15230;SDS011;32569;51.762;8.564;2023-05-10T07:35:07;7.07;;;5.87;;
15230;SDS011;32569;51.762;8.564;2023-05-10T07:37:34;7.33;;;6.53;;
15230;SDS011;32569;51.762;8.564;2023-05-10T07:40:01;7.40;;;6.67;;
15230;SDS011;32569;51.762;8.564;2023-05-10T07:42:27;8.07;;;7.27;;
15230;SDS011;32569;51.762;8.564;2023-05-10T07:44:54;7.50;;;6.77;;
15230;SDS011;32569;51.762;8.564;2023-05-10T07:47:24;8.07;;;7.10;;
15230;SDS011;32569;51.762;8.564;2023-05-10T07:49:50;8.67;;;6.40;;
15230;SDS011;32569;51.762;8.564;2023-05-10T07:52:17;7.77;;;6.83;;
15230;SDS011;32569;51.762;8.564;2023-05-10T07:54:44;10.17;;;7.17;;
15230;SDS011;32569;51.762;8.564;2023-05-10T07:57:11;8.70;;;7.70;;
15230;SDS011;32569;51.762;8.564;2023-05-10T07:59:39;7.87;;;7.07;;
15230;SDS011;32569;51.762;8.564;2023-05-10T08:02:06;9.27;;;7.40;;
15230;SDS011;32569;51.762;8.564;2023-05-10T08:04:34;9.53;;;7.57;;
15230;SDS011;32569;51.762;8.564;2023-05-10T08:07:00;9.60;;;8.50;;
15230;SDS011;32569;51.762;8.564;2023-05-10T08:09:27;11.93;;;10.43;;
15230;SDS011;32569;51.762;8.564;2023-05-10T08:11:54;15.23;;;12.30;;
15230;SDS011;32569;51.762;8.564;2023-05-10T08:14:20;18.70;;;14.97;;
15230;SDS011;32569;51.762;8.564;2023-05-10T08:16:47;16.77;;;14.73;;
15230;SDS011;32569;51.762;8.564;2023-05-10T08:19:13;16.00;;;13.83;;
15230;SDS011;32569;51.762;8.564;2023-05-10T08:21:45;19.30;;;16.37;;
15230;SDS011;32569;51.762;8.564;2023-05-10T08:24:14;18.50;;;15.20;;
15230;SDS011;32569;51.762;8.564;2023-05-10T08:26:41;16.90;;;14.93;;
15230;SDS011;32569;51.762;8.564;2023-05-10T08:29:08;19.20;;;15.37;;
15230;SDS011;32569;51.762;8.564;2023-05-10T08:31:35;19.47;;;15.80;;
15230;SDS011;32569;51.762;8.564;2023-05-10T08:34:01;18.93;;;14.17;;
15230;SDS011;32569;51.762;8.564;2023-05-10T08:36:28;18.83;;;15.17;;
15230;SDS011;32569;51.762;8.564;2023-05-10T08:38:56;18.33;;;14.60;;
15230;SDS011;32569;51.762;8.564;2023-05-10T08:41:23;19.13;;;15.40;;
15230;SDS011;32569;51.762;8.564;2023-05-10T08:43:50;19.53;;;15.67;;
15230;SDS011;32569;51.762;8.564;2023-05-10T08:46:18;21.70;;;16.47;;
15230;SDS011;32569;51.762;8.564;2023-05-10T08:48:46;24.70;;;17.80;;
15230;SDS011;32569;51.762;8.564;2023-05-10T08:51:14;25.40;;;17.67;;
15230;SDS011;32569;51.762;8.564;2023-05-10T08:53:43;22.03;;;18.33;;
15230;SDS011;32569;51.762;8.564;2023-05-10T08:56:12;21.40;;;17.90;;
15230;SDS011;32569;51.762;8.564;2023-05-10T08:58:40;23.80;;;18.30;;
15230;SDS011;32569;51.762;8.564;2023-05-10T09:01:07;21.67;;;17.80;;
15230;SDS011;32569;51.762;8.564;2023-05-10T09:03:36;24.80;;;19.63;;
15230;SDS011;32569;51.762;8.564;2023-05-10T09:06:04;23.50;;;18.47;;
15230;SDS011;32569;51.762;8.564;2023-05-10T09:08:31;21.47;;;17.10;;
15230;SDS011;32569;51.762;8.564;2023-05-10T09:10:59;22.77;;;18.57;;
15230;SDS011;32569;51.762;8.564;2023-05-10T09:13:29;20.37;;;17.57;;
15230;SDS011;32569;51.762;8.564;2023-05-10T09:15:56;22.20;;;17.70;;
15230;SDS011;32569;51.762;8.564;2023-05-10T09:18:23;22.77;;;19.27;;
15230;SDS011;32569;51.762;8.564;2023-05-10T09:20:49;24.80;;;19.93;;
15230;SDS011;32569;51.762;8.564;2023-05-10T09:23:16;23.30;;;18.40;;
15230;SDS011;32569;51.762;8.564;2023-05-10T09:25:43;20.47;;;17.23;;
15230;SDS011;32569;51.762;8.564;2023-05-10T09:28:10;19.73;;;15.93;;
15230;SDS011;32569;51.762;8.564;2023-05-10T09:30:39;20.03;;;16.33;;
15230;SDS011;32569;51.762;8.564;2023-05-10T09:33:05;18.97;;;16.87;;
15230;SDS011;32569;51.762;8.564;2023-05-10T09:35:32;18.07;;;15.77;;
15230;SDS011;32569;51.762;8.564;2023-05-10T09:38:00;19.37;;;16.73;;
15230;SDS011;32569;51.762;8.564;2023-05-10T09:40:28;19.97;;;16.27;;
15230;SDS011;32569;51.762;8.564;2023-05-10T09:42:57;20.97;;;16.87;;
15230;SDS011;32569;51.762;8.564;2023-05-10T09:45:25;22.13;;;18.13;;
15230;SDS011;32569;51.762;8.564;2023-05-10T09:47:57;23.30;;;18.37;;
15230;SDS011;32569;51.762;8.564;2023-05-10T09:50:25;22.13;;;19.50;;
15230;SDS011;32569;51.762;8.564;2023-05-10T09:52:53;18.77;;;15.73;;
15230;SDS011;32569;51.762;8.564;2023-05-10T09:55:23;21.10;;;17.27;;
15230;SDS011;32569;51.762;8.564;2023-05-10T09:57:58;35.90;;;17.47;;
15230;SDS011;32569;51.762;8.564;2023-05-10T10:00:25;20.60;;;16.93;;
15230;SDS011;32569;51.762;8.564;2023-05-10T10:02:54;17.37;;;14.57;;
15230;SDS011;32569;51.762;8.564;2023-05-10T10:05:28;18.97;;;15.60;;
15230;SDS011;32569;51.762;8.564;2023-05-10T10:07:55;20.50;;;15.30;;
15230;SDS011;32569;51.762;8.564;2023-05-10T10:10:23;18.20;;;14.90;;
15230;SDS011;32569;51.762;8.564;2023-05-10T10:12:50;18.07;;;14.90;;
15230;SDS011;32569;51.762;8.564;2023-05-10T10:15:17;19.47;;;15.43;;
15230;SDS011;32569;51.762;8.564;2023-05-10T10:17:44;19.70;;;15.53;;
15230;SDS011;32569;51.762;8.564;2023-05-10T10:20:12;20.17;;;16.13;;
15230;SDS011;32569;51.762;8.564;2023-05-10T10:22:41;19.07;;;16.33;;
15230;SDS011;32569;51.762;8.564;2023-05-10T10:25:10;19.93;;;15.03;;
15230;SDS011;32569;51.762;8.564;2023-05-10T10:27:43;21.80;;;15.50;;
15230;SDS011;32569;51.762;8.564;2023-05-10T10:30:17;17.33;;;15.00;;
15230;SDS011;32569;51.762;8.564;2023-05-10T10:32:59;21.30;;;16.70;;
15230;SDS011;32569;51.762;8.564;2023-05-10T10:35:35;20.23;;;16.90;;
15230;SDS011;32569;51.762;8.564;2023-05-10T10:38:03;20.07;;;16.57;;
15230;SDS011;32569;51.762;8.564;2023-05-10T10:40:30;18.70;;;14.20;;
15230;SDS011;32569;51.762;8.564;2023-05-10T10:42:58;17.97;;;14.90;;
15230;SDS011;32569;51.762;8.564;2023-05-10T10:48:38;18.27;;;14.87;;
15230;SDS011;32569;51.762;8.564;2023-05-10T10:51:04;18.67;;;14.07;;
15230;SDS011;32569;51.762;8.564;2023-05-10T10:53:32;17.57;;;14.57;;
15230;SDS011;32569;51.762;8.564;2023-05-10T10:56:04;19.40;;;15.93;;
15230;SDS011;32569;51.762;8.564;2023-05-10T10:58:34;19.87;;;15.20;;
15230;SDS011;32569;51.762;8.564;2023-05-10T11:01:11;18.63;;;15.47;;
15230;SDS011;32569;51.762;8.564;2023-05-10T11:03:40;17.60;;;14.47;;
15230;SDS011;32569;51.762;8.564;2023-05-10T11:06:07;17.90;;;13.83;;
15230;SDS011;32569;51.762;8.564;2023-05-10T11:08:41;21.43;;;14.37;;
15230;SDS011;32569;51.762;8.564;2023-05-10T11:11:09;14.03;;;11.50;;
15230;SDS011;32569;51.762;8.564;2023-05-10T11:13:40;17.63;;;13.50;;
15230;SDS011;32569;51.762;8.564;2023-05-10T11:16:12;18.13;;;14.03;;
15230;SDS011;32569;51.762;8.564;2023-05-10T11:18:41;16.97;;;14.63;;
15230;SDS011;32569;51.762;8.564;2023-05-10T11:21:19;19.30;;;15.93;;
15230;SDS011;32569;51.762;8.564;2023-05-10T11:23:50;21.10;;;16.13;;
15230;SDS011;32569;51.762;8.564;2023-05-10T11:26:21;15.43;;;13.83;;
15230;SDS011;32569;51.762;8.564;2023-05-10T11:28:50;18.27;;;13.17;;
15230;SDS011;32569;51.762;8.564;2023-05-10T11:31:18;15.70;;;13.77;;
15230;SDS011;32569;51.762;8.564;2023-05-10T11:33:46;16.70;;;14.33;;
15230;SDS011;32569;51.762;8.564;2023-05-10T11:36:14;16.70;;;13.70;;
15230;SDS011;32569;51.762;8.564;2023-05-10T11:38:41;14.93;;;13.33;;
15230;SDS011;32569;51.762;8.564;2023-05-10T11:41:09;14.97;;;12.70;;
15230;SDS011;32569;51.762;8.564;2023-05-10T11:43:38;11.63;;;10.23;;
15230;SDS011;32569;51.762;8.564;2023-05-10T11:46:06;11.70;;;10.50;;
15230;SDS011;32569;51.762;8.564;2023-05-10T11:48:33;12.43;;;10.03;;
15230;SDS011;32569;51.762;8.564;2023-05-10T11:51:00;12.00;;;8.20;;
15230;SDS011;32569;51.762;8.564;2023-05-10T11:53:28;8.17;;;7.27;;
15230;SDS011;32569;51.762;8.564;2023-05-10T11:56:00;7.37;;;5.73;;
15230;SDS011;32569;51.762;8.564;2023-05-10T11:58:30;5.97;;;5.30;;
15230;SDS011;32569;51.762;8.564;2023-05-10T12:00:56;7.17;;;4.57;;
15230;SDS011;32569;51.762;8.564;2023-05-10T12:03:24;4.57;;;3.60;;
15230;SDS011;32569;51.762;8.564;2023-05-10T12:05:50;4.30;;;2.53;;
15230;SDS011;32569;51.762;8.564;2023-05-10T12:08:19;2.77;;;2.57;;
15230;SDS011;32569;51.762;8.564;2023-05-10T12:10:47;2.73;;;2.53;;
15230;SDS011;32569;51.762;8.564;2023-05-10T12:13:14;2.43;;;2.23;;
15230;SDS011;32569;51.762;8.564;2023-05-10T12:15:42;2.93;;;2.63;;
15230;SDS011;32569;51.762;8.564;2023-05-10T12:18:09;3.17;;;2.73;;
15230;SDS011;32569;51.762;8.564;2023-05-10T12:20:37;3.73;;;2.90;;
15230;SDS011;32569;51.762;8.564;2023-05-10T12:23:04;3.27;;;2.97;;
15230;SDS011;32569;51.762;8.564;2023-05-10T12:25:31;2.97;;;2.77;;
15230;SDS011;32569;51.762;8.564;2023-05-10T12:28:02;4.53;;;3.07;;
15230;SDS011;32569;51.762;8.564;2023-05-10T12:30:30;3.37;;;3.00;;
15230;SDS011;32569;51.762;8.564;2023-05-10T12:33:06;3.20;;;2.80;;
15230;SDS011;32569;51.762;8.564;2023-05-10T12:35:43;3.60;;;2.73;;
15230;SDS011;32569;51.762;8.564;2023-05-10T12:38:24;3.33;;;2.90;;
15230;SDS011;32569;51.762;8.564;2023-05-10T12:40:51;3.77;;;3.00;;
15230;SDS011;32569;51.762;8.564;2023-05-10T12:43:18;3.60;;;3.30;;
15230;SDS011;32569;51.762;8.564;2023-05-10T12:45:45;4.60;;;4.10;;
15230;SDS011;32569;51.762;8.564;2023-05-10T12:48:15;9.10;;;6.70;;
15230;SDS011;32569;51.762;8.564;2023-05-10T12:50:41;9.10;;;7.90;;
15230;SDS011;32569;51.762;8.564;2023-05-10T12:53:08;7.70;;;6.90;;
15230;SDS011;32569;51.762;8.564;2023-05-10T12:55:35;15.93;;;7.27;;
15230;SDS011;32569;51.762;8.564;2023-05-10T12:58:01;11.93;;;7.63;;
15230;SDS011;32569;51.762;8.564;2023-05-10T13:00:28;9.10;;;8.13;;
15230;SDS011;32569;51.762;8.564;2023-05-10T13:02:54;11.27;;;10.17;;
15230;SDS011;32569;51.762;8.564;2023-05-10T13:05:22;12.03;;;9.83;;
15230;SDS011;32569;51.762;8.564;2023-05-10T13:07:49;12.27;;;10.60;;
15230;SDS011;32569;51.762;8.564;2023-05-10T13:10:16;11.90;;;10.70;;
15230;SDS011;32569;51.762;8.564;2023-05-10T13:12:46;12.10;;;10.57;;
15230;SDS011;32569;51.762;8.564;2023-05-10T13:15:15;12.60;;;10.33;;
15230;SDS011;32569;51.762;8.564;2023-05-10T13:17:43;11.60;;;10.40;;
15230;SDS011;32569;51.762;8.564;2023-05-10T13:20:13;12.53;;;10.23;;
15230;SDS011;32569;51.762;8.564;2023-05-10T13:22:42;9.43;;;7.70;;
15230;SDS011;32569;51.762;8.564;2023-05-10T13:25:09;7.63;;;6.93;;
15230;SDS011;32569;51.762;8.564;2023-05-10T13:27:36;7.37;;;5.90;;
15230;SDS011;32569;51.762;8.564;2023-05-10T13:30:02;6.57;;;5.77;;
15230;SDS011;32569;51.762;8.564;2023-05-10T13:32:30;6.03;;;5.43;;
15230;SDS011;32569;51.762;8.564;2023-05-10T13:34:56;6.17;;;5.37;;
15230;SDS011;32569;51.762;8.564;2023-05-10T13:37:25;7.57;;;5.93;;
15230;SDS011;32569;51.762;8.564;2023-05-10T13:39:53;8.20;;;6.80;;
15230;SDS011;32569;51.762;8.564;2023-05-10T13:42:20;10.60;;;8.97;;
15230;SDS011;32569;51.762;8.564;2023-05-10T13:44:47;13.43;;;11.17;;
15230;SDS011;32569;51.762;8.564;2023-05-10T13:47:14;11.57;;;10.27;;
15230;SDS011;32569;51.762;8.564;2023-05-10T13:49:41;12.00;;;10.70;;
15230;SDS011;32569;51.762;8.564;2023-05-10T13:52:08;13.27;;;10.63;;
15230;SDS011;32569;51.762;8.564;2023-05-10T13:54:35;14.27;;;11.47;;
15230;SDS011;32569;51.762;8.564;2023-05-10T13:57:03;14.77;;;11.53;;
15230;SDS011;32569;51.762;8.564;2023-05-10T13:59:30;14.23;;;11.77;;
15230;SDS011;32569;51.762;8.564;2023-05-10T14:01:57;14.83;;;12.07;;
15230;SDS011;32569;51.762;8.564;2023-05-10T14:04:23;16.47;;;13.10;;
15230;SDS011;32569;51.762;8.564;2023-05-10T14:06:50;13.53;;;12.10;;
15230;SDS011;32569;51.762;8.564;2023-05-10T14:09:17;18.77;;;13.23;;
15230;SDS011;32569;51.762;8.564;2023-05-10T14:11:45;14.33;;;12.10;;
15230;SDS011;32569;51.762;8.564;2023-05-10T14:14:12;15.20;;;12.10;;
15230;SDS011;32569;51.762;8.564;2023-05-10T14:16:41;16.80;;;12.10;;
15230;SDS011;32569;51.762;8.564;2023-05-10T14:19:08;12.13;;;9.90;;
15230;SDS011;32569;51.762;8.564;2023-05-10T14:21:35;13.13;;;10.47;;
15230;SDS011;32569;51.762;8.564;2023-05-10T14:24:02;14.10;;;11.70;;
15230;SDS011;32569;51.762;8.564;2023-05-10T14:26:29;18.33;;;13.37;;
15230;SDS011;32569;51.762;8.564;2023-05-10T14:28:56;13.80;;;10.90;;
15230;SDS011;32569;51.762;8.564;2023-05-10T14:31:25;33.47;;;24.43;;
15230;SDS011;32569;51.762;8.564;2023-05-10T14:33:52;18.20;;;13.90;;
15230;SDS011;32569;51.762;8.564;2023-05-10T14:36:19;17.43;;;13.20;;
15230;SDS011;32569;51.762;8.564;2023-05-10T14:38:45;17.60;;;13.57;;
15230;SDS011;32569;51.762;8.564;2023-05-10T14:41:12;20.47;;;14.70;;
15230;SDS011;32569;51.762;8.564;2023-05-10T14:43:40;17.57;;;13.53;;
15230;SDS011;32569;51.762;8.564;2023-05-10T14:46:07;20.90;;;13.50;;